Time;durP1;ratioP1;P1;durP2;ratioP2;P2;SDS_P1;SDS_P2;PMS_P1;PMS_P2;Temp;Humidity;BMP_temperature;BMP_pressure;BME280_temperature;BME280_humidity;BME280_pressure;Samples;Min_cycle;Max_cycle;Signal;HPM_P1;HPM_P2
2023/10/16 00:01:47;;;;;;;3.22;1.88;;;3.50;99.90;;;;;;5039699;28;20050;-64
2023/10/16 00:04:14;;;;;;;4.90;2.28;;;3.50;99.90;;;;;;5040072;28;20532;-64
2023/10/16 00:06:49;;;;;;;3.58;1.83;;;3.50;99.90;;;;;;5034346;28;20711;-64
2023/10/16 00:09:25;;;;;;;4.45;1.73;;;3.40;99.90;;;;;;5024609;28;20033;-64
2023/10/16 00:11:58;;;;;;;2.60;2.25;;;3.40;99.90;;;;;;5038132;28;20051;-62
2023/10/16 00:14:27;;;;;;;4.05;2.20;;;3.30;99.90;;;;;;5026069;28;20045;-64
2023/10/16 00:16:59;;;;;;;3.45;2.28;;;3.30;99.90;;;;;;5041012;28;20065;-64
2023/10/16 00:19:33;;;;;;;4.05;2.30;;;3.30;99.90;;;;;;5038767;28;20038;-64
2023/10/16 00:22:00;;;;;;;3.53;1.85;;;3.30;99.90;;;;;;5022452;28;20072;-64
2023/10/16 00:24:32;;;;;;;3.42;2.20;;;3.20;99.90;;;;;;5037546;28;20064;-64
2023/10/16 00:27:04;;;;;;;4.60;2.22;;;3.20;99.90;;;;;;5021351;28;20133;-64
2023/10/16 00:29:36;;;;;;;3.30;2.05;;;3.20;99.90;;;;;;5018737;28;20073;-64
2023/10/16 00:32:09;;;;;;;3.47;1.98;;;3.10;99.90;;;;;;5049789;28;20048;-64
2023/10/16 00:34:41;;;;;;;4.18;1.80;;;3.00;99.90;;;;;;5043740;28;20056;-64
2023/10/16 00:37:13;;;;;;;2.63;1.80;;;3.00;99.90;;;;;;5023064;28;20128;-64
2023/10/16 00:39:45;;;;;;;2.88;2.10;;;3.00;99.90;;;;;;5041135;28;20053;-64
2023/10/16 00:42:18;;;;;;;4.22;1.90;;;3.00;99.90;;;;;;5052494;28;20060;-64
2023/10/16 00:44:59;;;;;;;3.95;2.13;;;3.10;99.90;;;;;;5036338;28;20037;-64
2023/10/16 00:47:35;;;;;;;2.22;1.65;;;3.10;99.90;;;;;;5038230;28;20497;-64
2023/10/16 00:50:07;;;;;;;3.58;2.05;;;3.10;99.90;;;;;;5020086;28;20088;-64
2023/10/16 00:52:42;;;;;;;3.75;1.85;;;3.10;99.90;;;;;;5040822;28;20055;-64
2023/10/16 00:55:19;;;;;;;4.28;2.03;;;3.10;99.90;;;;;;5034351;28;20134;-64
2023/10/16 00:57:48;;;;;;;3.65;2.00;;;3.10;99.90;;;;;;5022104;28;20114;-64
2023/10/16 01:00:20;;;;;;;3.83;2.38;;;3.10;99.90;;;;;;5000338;28;20045;-64
2023/10/16 01:02:52;;;;;;;3.80;2.33;;;3.10;99.90;;;;;;5041165;28;20132;-64
2023/10/16 01:05:24;;;;;;;2.97;1.95;;;3.00;99.90;;;;;;5015382;28;20042;-64
2023/10/16 01:07:58;;;;;;;3.85;2.67;;;3.00;99.90;;;;;;5033000;28;20046;-64
2023/10/16 01:10:33;;;;;;;3.95;1.90;;;3.00;99.90;;;;;;5036526;28;20060;-64
2023/10/16 01:13:12;;;;;;;3.70;1.85;;;3.00;99.90;;;;;;5043101;28;20497;-64
2023/10/16 01:15:46;;;;;;;3.58;2.17;;;3.00;99.90;;;;;;5051639;28;20047;-64
2023/10/16 01:18:19;;;;;;;2.50;2.08;;;3.00;99.90;;;;;;5039380;28;20045;-64
2023/10/16 01:20:48;;;;;;;2.95;2.25;;;2.90;99.90;;;;;;5035639;28;20059;-65
2023/10/16 01:23:21;;;;;;;3.50;1.73;;;2.90;99.90;;;;;;5036642;28;20045;-64
2023/10/16 01:25:53;;;;;;;2.43;1.70;;;2.90;99.90;;;;;;5036860;28;20033;-63
2023/10/16 01:28:25;;;;;;;3.35;2.05;;;2.90;99.90;;;;;;5034570;28;20041;-64
2023/10/16 01:31:00;;;;;;;3.92;2.03;;;2.90;99.90;;;;;;5019559;28;20116;-64
2023/10/16 01:33:29;;;;;;;5.88;2.00;;;2.80;99.90;;;;;;5032979;28;20115;-64
2023/10/16 01:36:07;;;;;;;4.18;1.80;;;2.80;99.90;;;;;;5017514;28;20045;-64
2023/10/16 01:38:40;;;;;;;3.03;1.60;;;2.80;99.90;;;;;;5033787;28;20129;-64
2023/10/16 01:41:15;;;;;;;2.80;1.60;;;2.80;99.90;;;;;;5040745;28;20559;-64
2023/10/16 01:43:45;;;;;;;2.05;1.35;;;2.70;99.90;;;;;;5025647;28;20069;-64
2023/10/16 01:46:17;;;;;;;3.42;1.55;;;2.70;99.90;;;;;;5044579;28;20041;-63
2023/10/16 01:48:49;;;;;;;3.10;1.65;;;2.70;99.90;;;;;;5045730;28;20051;-64
2023/10/16 01:51:22;;;;;;;2.10;1.45;;;2.70;99.90;;;;;;5039355;28;20524;-64
2023/10/16 01:53:55;;;;;;;1.30;1.08;;;2.70;99.90;;;;;;5040160;28;20040;-64
2023/10/16 01:56:22;;;;;;;2.67;1.42;;;2.70;99.90;;;;;;5037051;28;20041;-64
2023/10/16 01:58:52;;;;;;;4.25;1.88;;;2.70;99.90;;;;;;5033119;28;20094;-64
2023/10/16 02:01:24;;;;;;;2.58;1.50;;;2.60;99.90;;;;;;5037403;28;20049;-64
2023/10/16 02:03:51;;;;;;;3.20;1.45;;;2.60;99.90;;;;;;5022405;28;20413;-64
2023/10/16 02:06:26;;;;;;;3.05;1.35;;;2.70;99.90;;;;;;5033135;28;20063;-64
2023/10/16 02:08:59;;;;;;;3.45;1.85;;;2.60;99.90;;;;;;5020398;28;20050;-64
2023/10/16 02:11:31;;;;;;;3.08;1.50;;;2.60;99.90;;;;;;5029394;28;20041;-64
2023/10/16 02:14:04;;;;;;;2.70;1.65;;;2.60;99.90;;;;;;5024897;28;20099;-64
2023/10/16 02:16:31;;;;;;;3.17;1.42;;;2.60;99.90;;;;;;5036787;28;20038;-64
2023/10/16 02:19:05;;;;;;;2.67;1.80;;;2.60;99.90;;;;;;5044642;28;20048;-64
2023/10/16 02:21:40;;;;;;;3.85;2.03;;;2.60;99.90;;;;;;5024073;28;20049;-64
2023/10/16 02:24:12;;;;;;;2.80;1.30;;;2.60;99.90;;;;;;5064554;22;20056;-68
2023/10/16 02:26:56;;;;;;;2.50;1.55;;;2.60;99.90;;;;;;5050324;28;20417;-69
2023/10/16 02:29:31;;;;;;;1.77;1.20;;;2.50;99.90;;;;;;5041186;28;20041;-68
2023/10/16 02:31:58;;;;;;;2.55;1.23;;;2.50;99.90;;;;;;5040306;28;20564;-69
2023/10/16 02:34:33;;;;;;;1.75;1.20;;;2.50;99.90;;;;;;5032298;28;20060;-69
2023/10/16 02:37:00;;;;;;;2.72;1.40;;;2.50;99.90;;;;;;5040106;28;20571;-69
2023/10/16 02:39:35;;;;;;;2.53;1.73;;;2.50;99.90;;;;;;5037786;28;20041;-69
2023/10/16 02:42:12;;;;;;;2.50;2.05;;;2.50;99.90;;;;;;5046658;28;20041;-69
2023/10/16 02:44:39;;;;;;;5.40;1.95;;;2.40;99.90;;;;;;5042894;28;20049;-69
2023/10/16 02:47:19;;;;;;;4.03;1.75;;;2.50;99.90;;;;;;5048312;28;20044;-69
2023/10/16 02:49:49;;;;;;;2.53;1.60;;;2.50;99.90;;;;;;5048853;28;20399;-69
2023/10/16 02:52:21;;;;;;;3.60;1.90;;;2.40;99.90;;;;;;5060709;28;20045;-69
2023/10/16 02:54:57;;;;;;;3.88;1.98;;;2.40;99.90;;;;;;5042826;28;20114;-68
2023/10/16 02:57:25;;;;;;;2.92;1.60;;;2.40;99.90;;;;;;5044898;28;20045;-68
2023/10/16 02:59:52;;;;;;;4.45;2.00;;;2.40;99.90;;;;;;5044000;28;20069;-68
2023/10/16 03:02:27;;;;;;;2.58;1.77;;;2.30;99.90;;;;;;5041456;28;20061;-68
2023/10/16 03:05:11;;;;;;;;;;;2.30;99.90;;;;;;5038571;28;20073;-68
2023/10/16 03:07:44;;;;;;;2.90;1.50;;;2.30;99.90;;;;;;5032531;28;20840;-69
2023/10/16 03:10:11;;;;;;;4.88;2.78;;;2.20;99.90;;;;;;5041472;28;20401;-68
2023/10/16 03:12:44;;;;;;;2.55;1.88;;;2.20;99.90;;;;;;5039915;28;20118;-68
2023/10/16 03:15:30;;;;;;;2.75;1.88;;;2.10;99.90;;;;;;5045865;28;20047;-68
2023/10/16 03:18:02;;;;;;;3.17;2.63;;;2.00;99.90;;;;;;5047205;28;20528;-68
2023/10/16 03:20:37;;;;;;;3.28;2.97;;;1.90;99.90;;;;;;5042449;28;20046;-68
2023/10/16 03:23:12;;;;;;;8.55;3.30;;;1.90;99.90;;;;;;5061463;28;20048;-68
2023/10/16 03:28:12;;;;;;;2.45;1.60;;;1.80;99.90;;;;;;5040980;28;20219;-68
2023/10/16 03:30:44;;;;;;;2.92;1.40;;;1.80;99.90;;;;;;5039257;28;20049;-68
2023/10/16 03:33:16;;;;;;;2.55;1.80;;;1.80;99.90;;;;;;5035203;28;20497;-68
2023/10/16 03:35:49;;;;;;;4.25;2.20;;;1.80;99.90;;;;;;5045361;28;20037;-69
2023/10/16 03:38:34;;;;;;;1.90;1.38;;;1.70;99.90;;;;;;5030331;28;20063;-68
2023/10/16 03:41:04;;;;;;;10.68;2.25;;;2.20;99.90;;;;;;5037153;28;20054;-68
2023/10/16 03:43:36;;;;;;;4.85;1.98;;;3.10;99.90;;;;;;5042691;28;20083;-69
2023/10/16 03:46:11;;;;;;;2.40;1.60;;;3.10;99.90;;;;;;5038761;28;20033;-69
2023/10/16 03:48:40;;;;;;;17.10;8.88;;;3.00;99.90;;;;;;5046360;28;20501;-68
2023/10/16 03:51:16;;;;;;;15.90;9.33;;;2.80;99.90;;;;;;5038690;28;20041;-68
2023/10/16 03:53:52;;;;;;;43.00;23.73;;;2.60;99.90;;;;;;5041422;28;20128;-68
2023/10/16 03:56:24;;;;;;;9.32;5.22;;;2.30;99.90;;;;;;5039710;28;20127;-69
2023/10/16 03:58:53;;;;;;;66.45;33.90;;;2.20;99.90;;;;;;5040925;28;20047;-69
2023/10/16 04:01:27;;;;;;;32.78;17.90;;;2.10;99.90;;;;;;5046807;28;20045;-69
2023/10/16 04:04:03;;;;;;;10.13;5.40;;;2.00;99.90;;;;;;5046219;28;20068;-68
2023/10/16 04:06:39;;;;;;;5.35;2.58;;;1.90;99.90;;;;;;5039820;28;20408;-69
2023/10/16 04:09:11;;;;;;;5.03;2.53;;;1.80;99.90;;;;;;5035911;28;20051;-68
2023/10/16 04:11:48;;;;;;;12.52;4.60;;;1.80;99.90;;;;;;5030154;28;20129;-68
2023/10/16 04:14:17;;;;;;;9.35;3.95;;;1.70;99.90;;;;;;5037265;28;20075;-69
2023/10/16 04:16:56;;;;;;;9.35;3.38;;;1.60;99.90;;;;;;5034416;28;20076;-69
2023/10/16 04:19:36;;;;;;;4.90;3.45;;;1.60;99.90;;;;;;5044790;28;20523;-68
2023/10/16 04:22:16;;;;;;;5.45;4.18;;;1.60;99.90;;;;;;5039762;28;20582;-68
2023/10/16 04:24:54;;;;;;;5.82;3.60;;;1.60;99.90;;;;;;5041212;28;20045;-68
2023/10/16 04:27:34;;;;;;;52.85;28.98;;;1.60;99.90;;;;;;5039475;28;20048;-68
2023/10/16 04:30:32;;;;;;;52.33;26.42;;;1.60;99.90;;;;;;5037911;28;20045;-69
2023/10/16 04:32:56;;;;;;;66.30;33.05;;;1.50;99.90;;;;;;5046306;28;20451;-69
2023/10/16 04:35:32;;;;;;;22.08;13.60;;;1.50;99.90;;;;;;5042520;28;20042;-68
2023/10/16 04:49:21;;;;;;;22.25;12.13;;;1.20;99.90;;;;;;5041742;28;20412;-69
2023/10/16 04:51:56;;;;;;;13.10;9.45;;;1.30;99.90;;;;;;5051337;28;20588;-69
2023/10/16 04:54:58;;;;;;;11.05;7.38;;;1.30;99.90;;;;;;5061668;28;20398;-68
2023/10/16 05:00:12;;;;;;;20.27;17.38;;;1.30;99.90;;;;;;5043913;28;20125;-69
2023/10/16 05:02:53;;;;;;;12.55;9.25;;;1.20;99.90;;;;;;5047811;28;20045;-68
2023/10/16 05:08:33;;;;;;;6.60;4.50;;;1.20;99.90;;;;;;5046962;28;20061;-68
2023/10/16 06:14:09;;;;;;;3.10;2.67;;;1.20;99.90;;;;;;5046059;28;20542;-68
2023/10/16 06:15:55;;;;;;;16.48;9.68;;;1.30;99.90;;;;;;5014021;28;20517;-69
2023/10/16 06:18:29;;;;;;;;;;;1.20;99.90;;;;;;5043623;28;20516;-68
2023/10/16 06:21:02;;;;;;;18.88;10.00;;;1.10;99.90;;;;;;5041336;28;20407;-68
2023/10/16 06:23:42;;;;;;;8.82;5.05;;;1.10;99.90;;;;;;5044350;28;20504;-68
2023/10/16 06:26:15;;;;;;;16.10;8.27;;;1.00;99.90;;;;;;5043840;28;20048;-68
2023/10/16 06:28:47;;;;;;;12.65;7.03;;;0.90;99.90;;;;;;5040731;28;20468;-68
2023/10/16 06:31:23;;;;;;;20.77;10.70;;;1.00;99.90;;;;;;5045671;28;20069;-68
2023/10/16 06:33:56;;;;;;;22.95;13.95;;;0.90;99.90;;;;;;5039212;28;20132;-68
2023/10/16 06:36:28;;;;;;;10.83;6.90;;;0.90;99.90;;;;;;5039664;28;20059;-68
2023/10/16 06:39:06;;;;;;;5.13;3.90;;;0.90;99.90;;;;;;5035713;28;20055;-68
2023/10/16 06:41:33;;;;;;;12.45;6.70;;;0.90;99.90;;;;;;5042479;28;20566;-68
2023/10/16 06:44:01;;;;;;;11.38;7.30;;;1.00;99.90;;;;;;5050280;28;20503;-68
2023/10/16 06:46:37;;;;;;;10.63;7.07;;;1.00;99.90;;;;;;5042215;28;20057;-68
2023/10/16 06:49:09;;;;;;;8.13;5.88;;;1.00;99.90;;;;;;5035434;28;20041;-67
2023/10/16 06:51:44;;;;;;;8.38;5.97;;;1.10;99.90;;;;;;5041303;28;20111;-69
2023/10/16 06:54:15;;;;;;;7.20;5.55;;;1.10;99.90;;;;;;5042356;28;20053;-68
2023/10/16 06:56:47;;;;;;;7.35;5.30;;;1.20;99.90;;;;;;5042632;28;20038;-68
2023/10/16 06:59:21;;;;;;;8.40;5.53;;;1.20;99.90;;;;;;5043024;28;20041;-68
2023/10/16 07:01:50;;;;;;;10.52;5.90;;;1.30;99.90;;;;;;5042085;28;20038;-68
2023/10/16 07:04:22;;;;;;;36.10;19.23;;;1.40;99.90;;;;;;5062819;28;20045;-69
2023/10/16 07:06:53;;;;;;;13.43;7.88;;;1.50;99.90;;;;;;5041320;28;20126;-69
2023/10/16 07:09:38;;;;;;;7.70;5.65;;;1.50;99.90;;;;;;5040576;28;20115;-69
2023/10/16 07:12:09;;;;;;;;;;;1.50;99.90;;;;;;5035002;28;20045;-69
2023/10/16 07:14:45;;;;;;;6.90;3.80;;;1.60;99.90;;;;;;5046096;28;19928;-69
2023/10/16 07:17:13;;;;;;;5.00;3.55;;;1.60;99.90;;;;;;5038732;28;20546;-69
2023/10/16 07:19:45;;;;;;;4.82;3.78;;;1.70;99.90;;;;;;5050715;28;20041;-69
2023/10/16 07:22:16;;;;;;;4.63;3.70;;;1.70;99.90;;;;;;5040821;28;20052;-69
2023/10/16 07:24:48;;;;;;;4.25;2.38;;;1.70;99.90;;;;;;5046092;28;20421;-69
2023/10/16 07:27:15;;;;;;;2.60;2.30;;;1.70;99.90;;;;;;5042825;28;20132;-69
2023/10/16 07:29:47;;;;;;;5.72;2.80;;;1.70;99.90;;;;;;5048331;28;20045;-69
2023/10/16 07:32:19;;;;;;;3.85;2.63;;;1.80;99.90;;;;;;5040327;28;20127;-69
2023/10/16 07:34:51;;;;;;;4.85;2.85;;;1.90;99.90;;;;;;5045238;28;20033;-69
2023/10/16 07:37:24;;;;;;;2.88;1.83;;;1.90;99.90;;;;;;5061567;28;20055;-68
2023/10/16 07:39:56;;;;;;;3.22;2.40;;;2.00;99.90;;;;;;5042263;28;20053;-69
2023/10/16 07:42:24;;;;;;;3.38;2.80;;;2.00;99.90;;;;;;5062219;28;20037;-68
2023/10/16 07:44:51;;;;;;;5.82;3.70;;;2.10;99.90;;;;;;5049460;28;20044;-69
2023/10/16 07:47:26;;;;;;;5.82;3.50;;;2.20;99.90;;;;;;5046393;28;20060;-69
2023/10/16 07:49:55;;;;;;;2.58;2.35;;;2.30;99.90;;;;;;5043780;28;20037;-69
2023/10/16 07:52:30;;;;;;;4.25;2.80;;;2.30;99.90;;;;;;5040703;28;20539;-69
2023/10/16 07:55:03;;;;;;;5.65;3.78;;;2.40;99.90;;;;;;5044927;28;20144;-69
2023/10/16 07:57:35;;;;;;;5.45;3.75;;;2.50;99.90;;;;;;5037937;28;20077;-69
2023/10/16 08:00:13;;;;;;;3.88;3.50;;;2.60;99.90;;;;;;5043430;28;20123;-69
2023/10/16 08:02:45;;;;;;;6.60;3.47;;;2.70;99.90;;;;;;5042193;28;20052;-70
2023/10/16 08:05:16;;;;;;;4.50;3.10;;;2.80;99.90;;;;;;5042912;28;20034;-69
2023/10/16 08:07:48;;;;;;;5.20;3.28;;;2.80;99.90;;;;;;5043765;28;20045;-70
2023/10/16 08:13:11;;;;;;;4.47;3.25;;;3.00;99.90;;;;;;5041452;28;20409;-69
2023/10/16 08:15:48;;;;;;;3.80;3.17;;;3.10;99.90;;;;;;5046699;28;20049;-69
2023/10/16 08:18:25;;;;;;;4.95;3.53;;;3.20;99.90;;;;;;5027921;28;20057;-69
2023/10/16 08:21:00;;;;;;;5.03;3.03;;;3.40;99.90;;;;;;5039889;28;20051;-69
2023/10/16 08:23:35;;;;;;;4.28;3.10;;;3.50;99.90;;;;;;5039302;28;20056;-69
2023/10/16 08:26:48;;;;;;;4.18;3.17;;;3.60;99.90;;;;;;5042793;28;20570;-69
2023/10/16 08:32:43;;;;;;;4.85;3.95;;;3.80;99.90;;;;;;5057835;28;20041;-68
2023/10/16 08:34:44;;;;;;;5.03;4.20;;;4.00;99.90;;;;;;5058927;28;20045;-69
2023/10/16 08:37:13;;;;;;;8.85;6.72;;;4.10;99.90;;;;;;5047220;28;20670;-69
2023/10/16 08:39:48;;;;;;;;;;;4.30;99.90;;;;;;5042915;28;20051;-68
2023/10/16 08:44:51;;;;;;;5.57;4.07;;;4.50;99.90;;;;;;5044727;28;20029;-69
2023/10/16 08:47:24;;;;;;;5.72;4.78;;;4.60;99.90;;;;;;5042073;28;20298;-69
2023/10/16 08:49:56;;;;;;;6.70;4.82;;;4.70;99.90;;;;;;5043916;28;20041;-69
2023/10/16 08:52:34;;;;;;;7.63;5.30;;;4.90;99.90;;;;;;5041239;28;20034;-69
2023/10/16 08:55:14;;;;;;;7.88;5.05;;;5.00;99.90;;;;;;5035303;28;20041;-68
2023/10/16 08:57:44;;;;;;;8.63;5.00;;;5.20;99.90;;;;;;5044779;28;20045;-68
2023/10/16 09:00:22;;;;;;;7.55;5.70;;;5.40;99.90;;;;;;5045666;28;20110;-69
2023/10/16 09:02:53;;;;;;;7.18;5.32;;;5.50;99.90;;;;;;5046242;28;20572;-69
2023/10/16 09:05:23;;;;;;;9.52;5.57;;;5.70;99.90;;;;;;5047558;28;20033;-68
2023/10/16 09:07:54;;;;;;;10.65;6.28;;;5.90;99.90;;;;;;5046027;28;20050;-69
2023/10/16 09:10:30;;;;;;;10.30;6.82;;;6.10;99.90;;;;;;5044205;28;20041;-69
2023/10/16 09:13:13;;;;;;;9.15;5.40;;;6.20;99.90;;;;;;5041858;28;20037;-69
2023/10/16 09:15:46;;;;;;;;;;;6.40;99.90;;;;;;5045332;28;20041;-69
2023/10/16 09:18:18;;;;;;;8.02;4.75;;;6.50;99.90;;;;;;5037350;28;19956;-69
2023/10/16 09:20:56;;;;;;;6.63;4.50;;;6.70;99.90;;;;;;5034071;28;20041;-69
2023/10/16 09:23:36;;;;;;;7.10;4.38;;;6.80;99.90;;;;;;5043961;28;20045;-69
2023/10/16 09:26:09;;;;;;;6.90;4.82;;;6.90;99.90;;;;;;5044957;28;20040;-68
2023/10/16 09:28:42;;;;;;;9.95;5.78;;;7.00;99.90;;;;;;5046554;28;20029;-68
2023/10/16 09:31:09;;;;;;;9.65;6.20;;;7.00;99.90;;;;;;5063779;28;20033;-69
2023/10/16 09:33:36;;;;;;;9.05;4.88;;;7.10;99.90;;;;;;5044653;28;20549;-68
2023/10/16 09:36:18;;;;;;;12.02;6.03;;;7.20;99.90;;;;;;5050187;28;20390;-68
2023/10/16 09:38:56;;;;;;;7.75;4.22;;;7.30;99.90;;;;;;5050695;28;20048;-68
2023/10/16 09:41:40;;;;;;;7.18;4.63;;;7.40;99.90;;;;;;5045613;28;20045;-69
2023/10/16 09:44:22;;;;;;;7.82;4.60;;;7.60;99.90;;;;;;5045378;28;20139;-68
2023/10/16 09:46:54;;;;;;;8.73;5.30;;;7.70;99.90;;;;;;5042942;28;20067;-68
2023/10/16 09:49:28;;;;;;;5.03;4.10;;;7.90;99.90;;;;;;5041619;28;20060;-68
2023/10/16 09:52:06;;;;;;;6.13;4.20;;;8.00;99.90;;;;;;5039044;28;20037;-68
2023/10/16 09:54:34;;;;;;;5.60;4.18;;;8.10;99.90;;;;;;5047437;28;20056;-68
2023/10/16 09:57:08;;;;;;;4.15;3.58;;;8.20;99.90;;;;;;5041735;28;20041;-68
2023/10/16 09:59:41;;;;;;;5.50;4.20;;;8.40;99.90;;;;;;5045678;28;20056;-68
2023/10/16 10:02:17;;;;;;;7.00;4.65;;;8.50;99.90;;;;;;5039577;28;20037;-68
2023/10/16 10:04:54;;;;;;;5.85;4.65;;;8.70;99.90;;;;;;5045808;28;20595;-69
2023/10/16 10:07:34;;;;;;;5.75;3.95;;;8.80;99.90;;;;;;5061186;28;20123;-69
2023/10/16 10:13:08;;;;;;;12.00;4.72;;;9.00;99.90;;;;;;5043501;28;20051;-69
2023/10/16 10:15:43;;;;;;;6.97;4.20;;;9.10;99.90;;;;;;5042155;28;20041;-69
2023/10/16 10:18:32;;;;;;;6.47;4.68;;;9.20;99.90;;;;;;5039000;28;20045;-68
2023/10/16 10:20:59;;;;;;;4.80;4.00;;;9.30;99.90;;;;;;5041311;28;20176;-68
2023/10/16 10:23:32;;;;;;;10.93;5.28;;;9.40;99.90;;;;;;5047286;28;20404;-70
2023/10/16 10:26:07;;;;;;;5.35;4.45;;;9.40;99.90;;;;;;5056025;28;20124;-68
2023/10/16 10:28:40;;;;;;;9.10;4.32;;;9.50;99.90;;;;;;5032474;28;20041;-69
2023/10/16 10:31:12;;;;;;;;;;;9.60;99.90;;;;;;5045760;28;20045;-68
2023/10/16 10:33:57;;;;;;;6.43;3.72;;;9.60;99.90;;;;;;5041545;28;19927;-70
2023/10/16 10:36:30;;;;;;;5.18;3.95;;;9.60;99.90;;;;;;5026223;28;20151;-68
2023/10/16 10:42:03;;;;;;;6.57;4.78;;;9.90;99.90;;;;;;5062081;22;20060;-64
2023/10/16 10:44:43;;;;;;;5.10;3.50;;;9.80;99.90;;;;;;5058214;28;20051;-64
2023/10/16 10:47:20;;;;;;;5.05;3.40;;;9.90;99.90;;;;;;5062141;28;20037;-64
2023/10/16 10:49:59;;;;;;;5.72;3.53;;;9.90;99.90;;;;;;5073843;28;20051;-64
2023/10/16 10:52:32;;;;;;;6.72;3.72;;;9.90;99.90;;;;;;5047929;28;20048;-64
2023/10/16 10:55:18;;;;;;;8.48;4.25;;;9.80;99.90;;;;;;5041738;28;20472;-64
2023/10/16 10:57:58;;;;;;;4.45;3.45;;;9.90;99.90;;;;;;5041377;28;20030;-64
2023/10/16 11:05:31;;;;;;;5.57;3.13;;;9.90;99.90;;;;;;5041221;28;20064;-64
2023/10/16 11:10:44;;;;;;;;;;;10.10;99.90;;;;;;5043347;28;20118;-64
2023/10/16 11:13:12;;;;;;;4.93;3.50;;;10.20;99.90;;;;;;5045372;28;19924;-64
2023/10/16 11:15:52;;;;;;;5.28;3.90;;;10.30;99.90;;;;;;5047482;28;20045;-64
2023/10/16 11:18:28;;;;;;;8.85;4.38;;;10.40;99.90;;;;;;5040932;28;20417;-64
2023/10/16 11:21:04;;;;;;;3.63;2.75;;;10.50;99.90;;;;;;5031531;28;20037;-64
2023/10/16 11:23:40;;;;;;;6.47;2.67;;;10.60;99.90;;;;;;5036541;28;20057;-64
2023/10/16 11:26:13;;;;;;;3.78;2.60;;;10.60;99.90;;;;;;5038177;28;20041;-64
2023/10/16 11:28:48;;;;;;;5.05;3.22;;;10.70;99.90;;;;;;5041799;28;20094;-64
2023/10/16 11:31:21;;;;;;;4.10;2.45;;;10.80;99.90;;;;;;5046274;28;20041;-64
2023/10/16 11:34:07;;;;;;;3.53;2.60;;;10.90;99.90;;;;;;5020760;28;20055;-64
2023/10/16 11:36:35;;;;;;;7.07;4.68;;;11.00;99.90;;;;;;5055952;28;20053;-64
2023/10/16 11:39:07;;;;;;;3.80;3.38;;;11.00;99.90;;;;;;5044344;28;20056;-64
2023/10/16 11:41:36;;;;;;;5.00;3.83;;;11.10;99.90;;;;;;5045177;28;20127;-65
2023/10/16 11:44:14;;;;;;;;;;;11.20;99.90;;;;;;5033611;28;20090;-65
2023/10/16 11:46:55;;;;;;;5.68;4.18;;;11.20;99.90;;;;;;5044586;28;20352;-64
2023/10/16 11:49:35;;;;;;;6.13;3.33;;;11.30;99.90;;;;;;5039328;28;20030;-65
2023/10/16 11:52:08;;;;;;;5.40;2.70;;;11.30;99.90;;;;;;5041033;28;20025;-64
2023/10/16 11:54:41;;;;;;;7.65;4.72;;;11.40;99.90;;;;;;5042469;28;20048;-65
2023/10/16 11:57:13;;;;;;;8.23;3.72;;;11.50;99.90;;;;;;5033143;28;20634;-64
2023/10/16 11:59:45;;;;;;;4.05;2.90;;;11.50;99.90;;;;;;5037817;28;20045;-64
2023/10/16 12:02:23;;;;;;;3.13;2.60;;;11.60;99.90;;;;;;5040547;28;20045;-65
2023/10/16 12:04:57;;;;;;;3.13;2.53;;;11.70;99.90;;;;;;5043984;28;20045;-64
2023/10/16 12:07:30;;;;;;;4.45;2.65;;;11.80;99.90;;;;;;5042509;28;20040;-64
2023/10/16 12:10:01;;;;;;;5.32;2.78;;;11.80;99.90;;;;;;5056054;28;20120;-63
2023/10/16 12:12:33;;;;;;;3.63;2.78;;;11.90;99.90;;;;;;5055112;28;20038;-64
2023/10/16 12:15:09;;;;;;;4.28;2.55;;;12.00;99.90;;;;;;5045256;28;20459;-63
2023/10/16 12:17:43;;;;;;;5.15;2.50;;;12.10;99.90;;;;;;5037110;28;20045;-63
2023/10/16 12:20:16;;;;;;;4.10;2.40;;;12.20;99.90;;;;;;5041757;28;20141;-64
2023/10/16 12:22:49;;;;;;;4.38;2.17;;;12.20;99.90;;;;;;5037054;28;20493;-64
2023/10/16 12:25:16;;;;;;;2.75;2.13;;;12.30;99.90;;;;;;5047098;28;20041;-64
2023/10/16 12:27:49;;;;;;;3.63;1.98;;;12.30;99.90;;;;;;5038612;28;20116;-63
2023/10/16 12:30:23;;;;;;;2.53;2.05;;;12.30;99.90;;;;;;5039175;28;20539;-63
2023/10/16 12:32:55;;;;;;;4.20;2.93;;;12.30;99.90;;;;;;5056847;28;20037;-63
2023/10/16 12:35:22;;;;;;;3.30;2.58;;;12.40;99.90;;;;;;5040719;28;20032;-63
2023/10/16 12:37:55;;;;;;;4.73;2.60;;;12.50;99.90;;;;;;5047247;28;20053;-64
2023/10/16 12:40:27;;;;;;;5.43;2.63;;;12.50;99.90;;;;;;5029697;28;20280;-64
2023/10/16 12:43:00;;;;;;;5.28;2.60;;;12.60;99.90;;;;;;5043730;28;20300;-64
2023/10/16 12:45:27;;;;;;;3.03;2.38;;;12.60;99.90;;;;;;5042382;28;20069;-64
2023/10/16 12:48:00;;;;;;;4.07;2.40;;;12.70;99.90;;;;;;5055937;28;20064;-64
2023/10/16 12:50:32;;;;;;;2.50;1.98;;;12.70;99.90;;;;;;5033800;28;20040;-64
2023/10/16 12:53:03;;;;;;;5.10;2.03;;;12.70;99.90;;;;;;5032903;28;20044;-64
2023/10/16 12:55:35;;;;;;;3.55;1.90;;;12.70;99.90;;;;;;5039137;28;20049;-64
2023/10/16 12:58:10;;;;;;;3.30;2.30;;;12.70;99.90;;;;;;5041890;28;20128;-64
2023/10/16 13:00:46;;;;;;;5.70;2.58;;;12.70;99.90;;;;;;5041017;28;20165;-64
2023/10/16 13:03:20;;;;;;;4.63;2.35;;;12.70;99.90;;;;;;5039084;28;20049;-64
2023/10/16 13:05:53;;;;;;;4.45;2.50;;;12.80;99.90;;;;;;5040433;28;20042;-63
2023/10/16 13:08:26;;;;;;;6.65;2.65;;;12.90;99.90;;;;;;5040780;28;20065;-64
2023/10/16 13:10:53;;;;;;;4.43;2.53;;;12.80;99.90;;;;;;5046455;28;20040;-64
2023/10/16 13:13:25;;;;;;;3.47;2.72;;;12.80;99.90;;;;;;5042343;28;20048;-64
2023/10/16 13:15:52;;;;;;;3.00;2.45;;;12.80;99.90;;;;;;5037798;28;20042;-63
2023/10/16 13:18:28;;;;;;;3.20;2.72;;;12.90;99.90;;;;;;5040449;28;20473;-64
2023/10/16 13:21:13;;;;;;;7.28;4.65;;;12.90;99.90;;;;;;5038469;28;20049;-64
2023/10/16 13:23:45;;;;;;;11.07;7.07;;;12.90;99.90;;;;;;5041606;28;20057;-64
2023/10/16 13:26:17;;;;;;;4.15;2.20;;;12.90;99.90;;;;;;5039049;28;20385;-64
2023/10/16 13:28:44;;;;;;;3.20;1.90;;;12.90;99.90;;;;;;5044021;28;20048;-64
2023/10/16 13:31:16;;;;;;;2.65;2.13;;;12.90;99.90;;;;;;5044839;28;20041;-64
2023/10/16 13:33:50;;;;;;;2.80;2.20;;;12.90;99.90;;;;;;5045018;28;20048;-64
2023/10/16 13:36:22;;;;;;;4.65;2.78;;;13.00;99.90;;;;;;5045960;28;20120;-64
2023/10/16 13:38:55;;;;;;;3.72;2.95;;;13.00;99.90;;;;;;5050643;28;20045;-64
2023/10/16 13:41:25;;;;;;;3.35;1.70;;;13.00;99.90;;;;;;5045385;28;20046;-64
2023/10/16 13:43:56;;;;;;;2.75;2.20;;;13.00;99.90;;;;;;5046895;28;20464;-64
2023/10/16 13:46:29;;;;;;;2.75;2.20;;;13.00;99.90;;;;;;5047677;28;20037;-64
2023/10/16 13:49:01;;;;;;;2.92;2.10;;;13.10;99.90;;;;;;5042920;28;20041;-64
2023/10/16 13:51:35;;;;;;;3.33;2.72;;;13.00;99.90;;;;;;5045884;28;20052;-64
2023/10/16 13:54:14;;;;;;;3.80;2.83;;;13.00;99.90;;;;;;5048159;28;20048;-64
2023/10/16 13:56:49;;;;;;;6.45;4.10;;;12.90;99.90;;;;;;5038759;28;20053;-64
2023/10/16 13:59:20;;;;;;;5.50;4.38;;;12.90;99.90;;;;;;5049255;28;20433;-64
2023/10/16 14:01:52;;;;;;;5.18;4.63;;;13.00;99.90;;;;;;5045413;28;20129;-63
2023/10/16 14:04:28;;;;;;;5.72;4.10;;;13.00;99.90;;;;;;5049452;28;20060;-63
2023/10/16 14:07:00;;;;;;;7.53;4.82;;;13.00;99.90;;;;;;5044203;28;20512;-63
2023/10/16 14:09:35;;;;;;;3.80;2.95;;;13.00;99.90;;;;;;5046266;28;20401;-64
2023/10/16 14:12:02;;;;;;;2.88;1.90;;;13.00;99.90;;;;;;5048614;28;20120;-64
2023/10/16 14:14:34;;;;;;;2.97;2.20;;;12.90;99.90;;;;;;5038935;28;20049;-63
2023/10/16 14:17:16;;;;;;;3.70;2.42;;;13.10;99.90;;;;;;5044737;28;20524;-63
2023/10/16 14:19:48;;;;;;;3.00;2.55;;;13.10;99.90;;;;;;5044553;28;20052;-63
2023/10/16 14:22:23;;;;;;;4.25;3.47;;;13.10;99.90;;;;;;5043559;28;20043;-63
2023/10/16 14:24:55;;;;;;;5.03;3.30;;;13.00;99.90;;;;;;5043349;28;20059;-63
2023/10/16 14:27:27;;;;;;;2.65;2.20;;;13.00;99.90;;;;;;5037264;28;20049;-63
2023/10/16 14:29:59;;;;;;;3.67;2.40;;;13.00;99.90;;;;;;5042458;28;20046;-63
2023/10/16 14:32:32;;;;;;;4.80;3.47;;;13.10;99.90;;;;;;5042596;28;20037;-63
2023/10/16 14:35:00;;;;;;;7.50;4.10;;;13.20;99.90;;;;;;5043015;28;20033;-63
2023/10/16 14:37:33;;;;;;;7.53;5.20;;;13.20;99.90;;;;;;5043171;28;20049;-63
2023/10/16 14:40:05;;;;;;;5.97;4.55;;;13.20;99.90;;;;;;5038080;28;20531;-63
2023/10/16 14:42:39;;;;;;;4.80;4.30;;;13.20;99.90;;;;;;5042592;28;20056;-64
2023/10/16 14:45:11;;;;;;;6.70;4.55;;;13.10;99.90;;;;;;5043360;28;20508;-63
2023/10/16 14:47:43;;;;;;;4.55;3.80;;;13.10;99.90;;;;;;5043319;28;20052;-64
2023/10/16 14:50:14;;;;;;;5.20;3.97;;;13.20;99.90;;;;;;5044427;28;20128;-63
2023/10/16 14:52:47;;;;;;;3.60;2.25;;;13.20;99.90;;;;;;5042958;28;20424;-63
2023/10/16 14:55:19;;;;;;;;;;;13.20;99.90;;;;;;5046133;28;20063;-63
2023/10/16 14:57:51;;;;;;;3.95;2.65;;;13.30;99.90;;;;;;5038988;28;19932;-64
2023/10/16 15:00:32;;;;;;;2.85;1.92;;;13.40;99.90;;;;;;5036743;28;20052;-64
2023/10/16 15:03:10;;;;;;;3.20;2.45;;;13.50;99.90;;;;;;5058948;28;20069;-64
2023/10/16 15:05:46;;;;;;;2.78;2.15;;;13.50;99.90;;;;;;5042195;28;20048;-64
2023/10/16 15:08:19;;;;;;;4.72;2.22;;;13.50;99.90;;;;;;5045493;28;20052;-64
2023/10/16 15:10:51;;;;;;;4.00;2.20;;;13.70;99.90;;;;;;5041732;28;20051;-64
2023/10/16 15:13:27;;;;;;;3.95;2.03;;;13.90;99.90;;;;;;5042306;28;20037;-63